Share

Wake Island Airfield, Wake Island

Wake Island Army Air Field (PWAK) Elev 13 ft | 19.28 °N, 166.64 °E | Change Station

Current weather conditions updated 50 minutes ago

Partly Cloudy
Partly Cloudy
84 °F
Feels Like 91 °F
N
10
Wind Variable Wind from SE
Sunrise 6:34 AM
Sunset 7:11 PM
Moon Waning Gibbous

Today is forecast to be nearly the same temperature as yesterday.

Pressure 29.92 in
Visibility 10.0 miles
Clouds Few 1800 ft
Heat Index 91 °F
Dew Point 73 °F
Humidity 70%
Rainfall 0.00 in
Snow Depth Not available.
UV 11 out of 16
Pollen Not available.
Air Quality Not available.
Flu Activity Not available.
METAR PWAK 170155Z 13009KT 10SM FEW018 29/23 A2992 RMK AO2A

More Conditions Fewer Conditions

Pressure 29.92 in
Visibility 10.0 miles
Clouds Few 1800 ft
Heat Index 91 °F
Dew Point 73 °F
Humidity 70%
Rainfall 0.00 in
Snow Depth Not available.
UV 11 out of 16
Pollen Not available.
Air Quality Not available.
Flu Activity Not available.
METAR PWAK 170155Z 13009KT 10SM FEW018 29/23 A2992 RMK AO2A

More Conditions Fewer Conditions

10-Day Forecast

Almanac

Astronomy

Apr. 17, 2014 Rise Set
Actual Time 6:34 AM WAKT 7:11 PM WAKT
Civil Twilight 6:12 AM WAKT 7:33 PM WAKT
Nautical Twilight 5:46 AM WAKT 8:00 PM WAKT
Astronomical Twilight 5:19 AM WAKT 8:26 PM WAKT
Moon 8:59 PM WAKT 7:44 AM WAKT
Length of Visible Light 13h 21m
Length of Day
12h 36m
Tomorrow will be 1m 1s longer.
Waning Gibbous, 96% of the Moon is Illuminated
Apr 16
Waning Gibbous
Apr 22
Last Quarter
Apr 29
New
May 6
First Quarter
May 14
Full

Yesterday's Extremes

Country Highs Country Lows

Community

  • symphony in blue....
    symphony in blue....
  • Dawn Surprise
    Dawn Surprise
  • Yucca delight
    Yucca delight
  • Sunset inside of the Ocean
    Sunset inside of the Ocean
  • Lunar eclipse 15 April 2014
    Lunar eclipse 15 April 2014

WunderPhotos

Upload Photos

1,701,825 photos uploaded!

WunderBlogs® & News

Nearby

Snow Depth

Not available.

Coastal Water Temperatures

Place Temperature
No Stations Reporting

Earthquake Activity

City Distance Mag. Time & Date
No recent earthquake activity has been reported nearby.
Minimum magnitude displayed is 2.5.

Nearby Weather Stations

There are no personal weather stations in this area.

What do you think?

We're not finished. Please let us know what you like, what you don't like, and what you are still missing.